Time;durP1;ratioP1;P1;durP2;ratioP2;P2;SDS_P1;SDS_P2;PMS_P1;PMS_P2;Temp;Humidity;BMP_temperature;BMP_pressure;BME280_temperature;BME280_humidity;BME280_pressure;Samples;Min_cycle;Max_cycle;Signal;HPM_P1;HPM_P2
2023/08/06 00:01:11;;;;;;;8.55;5.57;;;;;;;19.58;79.13;100509.91;5010200;28;20037;-46
2023/08/06 00:03:37;;;;;;;8.90;5.50;;;;;;;19.59;79.31;100519.53;5010007;28;20378;-50
2023/08/06 00:06:04;;;;;;;7.78;5.32;;;;;;;19.56;79.48;100515.22;5008121;28;20054;-46
2023/08/06 00:08:29;;;;;;;8.13;5.47;;;;;;;19.49;79.48;100518.06;5009946;28;20038;-47
2023/08/06 00:10:55;;;;;;;8.88;5.68;;;;;;;19.60;79.18;100518.63;5009493;28;20091;-44
2023/08/06 00:13:20;;;;;;;10.60;5.80;;;;;;;19.65;79.02;100517.56;5008325;28;20030;-47
2023/08/06 00:15:45;;;;;;;8.38;5.70;;;;;;;19.63;79.18;100515.91;5009699;28;20069;-47
2023/08/06 00:18:11;;;;;;;7.78;5.57;;;;;;;19.56;79.43;100515.22;5009454;28;20088;-44
2023/08/06 00:20:38;;;;;;;8.18;5.47;;;;;;;19.44;79.84;100516.41;5009509;28;20038;-45
2023/08/06 00:23:04;;;;;;;9.52;6.18;;;;;;;19.41;80.21;100515.59;5008615;28;20030;-46
2023/08/06 00:25:29;;;;;;;8.43;5.70;;;;;;;19.60;79.45;100522.13;5009501;28;20042;-46
2023/08/06 00:27:56;;;;;;;8.20;5.38;;;;;;;19.60;79.62;100519.50;5009635;28;20045;-48
2023/08/06 00:30:21;;;;;;;9.05;5.80;;;;;;;19.52;79.89;100516.19;5009059;28;20029;-46
2023/08/06 00:32:47;;;;;;;10.57;5.80;;;;;;;19.56;79.68;100519.63;5009159;28;20081;-46
2023/08/06 00:35:13;;;;;;;8.70;5.85;;;;;;;19.43;79.92;100525.25;5008986;28;20135;-49
2023/08/06 00:37:38;;;;;;;8.73;5.95;;;;;;;19.43;80.24;100524.38;5009791;28;20038;-47
2023/08/06 00:40:05;;;;;;;11.82;5.32;;;;;;;19.49;79.97;100518.06;5011111;28;20213;-44
2023/08/06 00:42:30;;;;;;;9.68;5.80;;;;;;;19.59;79.70;100516.88;5011879;28;20113;-45
2023/08/06 00:44:56;;;;;;;8.00;5.65;;;;;;;19.60;79.79;100515.97;5013089;28;20065;-42
2023/08/06 00:47:21;;;;;;;7.88;5.32;;;;;;;19.68;79.22;100514.84;5011530;28;20042;-46
2023/08/06 00:49:47;;;;;;;9.20;6.07;;;;;;;19.58;79.58;100513.38;5013273;28;20325;-47
2023/08/06 00:52:13;;;;;;;8.80;5.90;;;;;;;19.58;79.85;100516.00;5013588;28;20381;-44
2023/08/06 00:54:39;;;;;;;11.25;5.95;;;;;;;19.50;80.26;100517.16;5015273;28;20302;-49
2023/08/06 00:57:08;;;;;;;7.85;5.63;;;;;;;19.57;79.99;100516.97;5014204;28;20726;-47
2023/08/06 00:59:34;;;;;;;8.55;5.78;;;;;;;19.68;79.42;100521.91;5013689;28;20033;-47
2023/08/06 01:01:59;;;;;;;7.63;5.30;;;;;;;19.56;79.92;100512.56;5010522;28;20041;-50
2023/08/06 01:04:25;;;;;;;9.13;5.43;;;;;;;19.43;80.00;100517.31;5012488;28;20042;-45
2023/08/06 01:07:29;;;;;;;8.00;5.40;;;;;;;19.48;79.95;100513.69;5012493;28;20046;-48
2023/08/06 01:10:12;;;;;;;8.20;5.47;;;;;;;19.62;79.73;100514.16;5012247;28;20104;-44
2023/08/06 01:13:05;;;;;;;6.82;5.15;;;;;;;19.56;79.50;100512.56;5012050;28;20128;-50
2023/08/06 01:15:38;;;;;;;6.55;4.70;;;;;;;19.56;79.75;100520.50;5012359;28;20125;-45
2023/08/06 01:18:04;;;;;;;7.60;5.03;;;;;;;19.57;79.89;100518.72;5012201;28;20042;-44
2023/08/06 01:20:31;;;;;;;6.50;4.70;;;;;;;19.53;79.91;100517.94;5012255;28;20277;-43
2023/08/06 01:22:56;;;;;;;6.00;4.10;;;;;;;19.67;79.36;100528.13;5011963;28;20402;-45
2023/08/06 01:25:40;;;;;;;5.78;4.20;;;;;;;19.68;79.47;100530.72;5011673;28;20065;-45
2023/08/06 01:28:14;;;;;;;5.85;4.30;;;;;;;19.43;79.89;100530.53;5011855;28;20046;-47
2023/08/06 01:30:41;;;;;;;12.05;4.80;;;;;;;19.30;80.40;100533.56;5012143;28;20057;-44
2023/08/06 01:33:09;;;;;;;8.15;4.85;;;;;;;19.11;81.38;100530.53;5011325;28;20040;-45
2023/08/06 01:35:37;;;;;;;7.97;4.85;;;;;;;19.26;81.14;100530.16;5012026;28;20050;-43
2023/08/06 01:38:03;;;;;;;6.35;4.60;;;;;;;19.35;80.42;100536.94;5011664;28;20061;-49
2023/08/06 01:40:29;;;;;;;6.20;4.40;;;;;;;19.36;80.33;100531.59;5011916;28;20491;-43
2023/08/06 01:42:54;;;;;;;7.00;4.40;;;;;;;19.37;80.46;100530.69;5011519;28;20512;-45
2023/08/06 01:45:20;;;;;;;6.05;4.32;;;;;;;19.19;81.50;100530.34;5011207;28;20033;-45
2023/08/06 01:47:45;;;;;;;6.65;3.90;;;;;;;19.44;80.15;100537.56;5011949;28;20088;-48
2023/08/06 01:50:10;;;;;;;7.57;4.20;;;;;;;19.40;80.03;100541.19;5011357;28;20501;-48
2023/08/06 01:52:36;;;;;;;5.22;3.70;;;;;;;19.39;80.07;100536.78;5011420;28;20519;-48
2023/08/06 01:55:01;;;;;;;5.15;3.67;;;;;;;19.40;80.12;100537.66;5010956;28;20084;-47
2023/08/06 01:57:27;;;;;;;7.18;3.60;;;;;;;19.41;80.40;100542.91;5011126;28;20468;-45
2023/08/06 01:59:52;;;;;;;5.15;3.40;;;;;;;19.43;80.36;100546.41;5011550;28;20034;-46
2023/08/06 02:02:17;;;;;;;5.22;3.70;;;;;;;19.46;80.17;100552.56;5010785;28;20037;-43
2023/08/06 02:04:43;;;;;;;7.32;4.00;;;;;;;19.26;80.72;100547.78;5011300;28;20527;-47
2023/08/06 02:07:08;;;;;;;6.32;3.88;;;;;;;19.15;81.38;100548.03;5010822;28;20121;-43
2023/08/06 02:09:35;;;;;;;6.72;3.95;;;;;;;19.28;80.88;100546.81;5011563;28;20034;-46
2023/08/06 02:12:00;;;;;;;9.73;3.50;;;;;;;19.19;81.11;100555.00;5010689;28;20034;-44
2023/08/06 02:14:26;;;;;;;4.70;2.97;;;;;;;19.31;80.85;100562.59;5011499;28;20034;-45
2023/08/06 02:16:51;;;;;;;4.60;2.83;;;;;;;19.45;80.25;100556.94;5011349;28;20064;-49
2023/08/06 02:19:16;;;;;;;4.88;3.17;;;;;;;19.27;81.24;100562.72;5010888;28;20041;-44
2023/08/06 02:21:42;;;;;;;6.65;3.33;;;;;;;19.14;81.80;100551.63;5011025;28;20040;-45
2023/08/06 02:24:07;;;;;;;5.13;3.50;;;;;;;19.07;82.16;100557.09;5010102;28;20410;-49
2023/08/06 02:26:32;;;;;;;7.68;3.90;;;;;;;19.20;81.57;100554.09;5011055;28;20749;-44
2023/08/06 02:28:58;;;;;;;7.75;3.80;;;;;;;19.28;81.45;100554.72;5011345;28;20046;-46
2023/08/06 02:31:23;;;;;;;9.77;3.92;;;;;;;19.21;81.63;100550.50;5009604;28;20042;-44
2023/08/06 02:33:48;;;;;;;7.40;3.47;;;;;;;19.19;81.69;100544.44;5010790;28;20034;-44
2023/08/06 02:36:14;;;;;;;7.32;3.20;;;;;;;19.24;81.88;100549.56;5010777;28;20130;-44
2023/08/06 02:38:39;;;;;;;4.80;3.00;;;;;;;19.43;80.76;100559.63;5011009;28;20132;-46
2023/08/06 02:41:05;;;;;;;3.90;2.60;;;;;;;19.31;81.19;100559.09;5010779;28;20072;-44
2023/08/06 02:43:30;;;;;;;5.50;2.88;;;;;;;19.30;81.32;100562.63;5011010;28;20037;-43
2023/08/06 02:46:00;;;;;;;8.90;2.42;;;;;;;19.15;81.48;100561.25;5011342;28;20026;-44
2023/08/06 02:48:25;;;;;;;7.80;2.45;;;;;;;19.02;82.45;100567.78;5011033;28;20049;-44
2023/08/06 02:50:51;;;;;;;3.25;2.15;;;;;;;18.98;82.47;100574.91;5010683;28;20030;-47
2023/08/06 02:53:16;;;;;;;2.92;1.88;;;;;;;18.81;82.60;100571.84;5011235;28;20604;-43
2023/08/06 02:55:48;;;;;;;4.35;1.90;;;;;;;18.81;82.39;100577.13;5011904;28;20504;-48
2023/08/06 02:58:17;;;;;;;8.02;1.77;;;;;;;18.78;82.07;100577.22;5010355;28;20072;-48
2023/08/06 03:00:43;;;;;;;11.73;1.98;;;;;;;18.58;82.67;100575.06;5010323;28;20077;-50
2023/08/06 03:03:09;;;;;;;3.53;1.77;;;;;;;18.81;82.48;100576.25;5009803;28;20030;-44
2023/08/06 03:05:34;;;;;;;3.25;1.60;;;;;;;19.08;81.55;100578.19;5010623;28;20037;-44
2023/08/06 03:08:00;;;;;;;4.10;2.00;;;;;;;18.74;83.02;100587.88;5009216;28;20516;-48
2023/08/06 03:10:26;;;;;;;3.78;1.70;;;;;;;18.86;81.71;100577.88;5010427;28;20048;-47
2023/08/06 03:12:51;;;;;;;4.22;1.90;;;;;;;18.66;82.72;100581.94;5009953;28;20121;-43
2023/08/06 03:15:17;;;;;;;3.13;2.00;;;;;;;18.83;82.36;100577.09;5009832;28;20029;-43
2023/08/06 03:17:44;;;;;;;3.08;2.20;;;;;;;18.98;81.77;100576.69;5010692;28;20499;-43
2023/08/06 03:20:09;;;;;;;3.58;2.47;;;;;;;18.82;82.46;100575.34;5010395;28;20508;-43
2023/08/06 03:22:35;;;;;;;4.82;2.80;;;;;;;18.84;82.53;100577.06;5010454;28;20040;-44
2023/08/06 03:25:00;;;;;;;5.03;3.22;;;;;;;18.82;82.75;100575.34;5009926;28;20038;-49
2023/08/06 03:27:25;;;;;;;5.65;3.70;;;;;;;18.74;83.04;100569.38;5010133;28;20042;-46
2023/08/06 03:29:51;;;;;;;4.93;3.50;;;;;;;18.95;81.90;100577.66;5010143;28;20459;-45
2023/08/06 03:32:16;;;;;;;8.32;4.35;;;;;;;18.91;81.99;100575.09;5009083;28;20445;-43
2023/08/06 03:34:42;;;;;;;9.05;4.85;;;;;;;18.83;81.86;100577.09;5010176;28;20041;-41
2023/08/06 03:37:07;;;;;;;8.48;4.90;;;;;;;18.78;82.43;100582.50;5009577;28;20030;-46
2023/08/06 03:39:32;;;;;;;10.15;5.40;;;;;;;18.66;83.00;100579.28;5010206;28;20080;-44
2023/08/06 03:41:58;;;;;;;9.73;5.50;;;;;;;18.84;82.42;100587.63;5009188;28;20084;-42
2023/08/06 03:44:23;;;;;;;10.85;6.55;;;;;;;18.64;82.75;100592.53;5010858;28;20409;-47
2023/08/06 03:46:48;;;;;;;11.02;5.68;;;;;;;18.08;85.04;100597.28;5010696;28;20044;-43
2023/08/06 03:49:14;;;;;;;8.77;4.38;;;;;;;18.12;83.63;100604.22;5009526;28;20427;-45
2023/08/06 03:51:39;;;;;;;7.85;3.80;;;;;;;17.74;85.06;100612.97;5009665;28;20042;-45
2023/08/06 03:54:04;;;;;;;7.07;3.90;;;;;;;18.18;82.97;100616.41;5008906;28;20543;-44
2023/08/06 03:56:30;;;;;;;8.05;3.45;;;;;;;17.83;82.98;100612.75;5009873;28;20492;-46
2023/08/06 03:58:55;;;;;;;5.35;2.95;;;;;;;17.94;82.44;100615.16;5010234;28;20058;-43
2023/08/06 04:01:20;;;;;;;10.00;2.80;;;;;;;17.93;81.64;100612.59;5009389;28;20126;-45
2023/08/06 04:03:46;;;;;;;5.60;2.60;;;;;;;17.54;82.18;100622.97;5009564;28;20459;-47
2023/08/06 04:06:11;;;;;;;6.13;2.65;;;;;;;17.54;81.95;100619.47;5009475;28;20745;-44
2023/08/06 04:08:36;;;;;;;6.10;2.55;;;;;;;17.78;80.76;100619.03;5011573;28;20042;-46
2023/08/06 04:11:02;;;;;;;7.25;2.70;;;;;;;17.83;80.55;100615.41;5009771;28;20114;-44
2023/08/06 04:13:27;;;;;;;6.13;2.72;;;;;;;17.87;80.35;100624.09;5009502;28;20053;-46
2023/08/06 04:15:53;;;;;;;6.13;2.70;;;;;;;18.04;79.79;100623.78;5009878;28;20079;-46
2023/08/06 04:18:18;;;;;;;4.05;2.60;;;;;;;17.91;80.08;100622.28;5009112;28;20038;-41
2023/08/06 04:20:47;;;;;;;5.15;2.75;;;;;;;17.78;80.87;100629.56;5012060;28;20062;-42
2023/08/06 04:23:13;;;;;;;3.83;2.40;;;;;;;17.88;80.48;100627.59;5011166;28;20038;-42
2023/08/06 04:25:38;;;;;;;6.43;2.78;;;;;;;17.96;80.25;100631.84;5013311;28;20041;-45
2023/08/06 04:28:04;;;;;;;6.30;2.72;;;;;;;18.01;80.13;100624.69;5011677;28;20073;-44
2023/08/06 04:30:29;;;;;;;3.65;2.47;;;;;;;18.07;80.31;100636.88;5013430;28;20068;-50
2023/08/06 04:32:57;;;;;;;5.47;2.55;;;;;;;18.15;80.27;100642.88;5013089;28;20500;-45
2023/08/06 04:35:23;;;;;;;4.63;2.53;;;;;;;18.22;80.00;100637.44;5012634;28;20052;-46
2023/08/06 04:37:48;;;;;;;5.80;2.70;;;;;;;18.20;80.11;100638.38;5013640;28;20504;-45
2023/08/06 04:40:14;;;;;;;6.32;2.80;;;;;;;18.28;79.96;100644.34;5012793;28;20121;-51
2023/08/06 04:42:39;;;;;;;4.90;2.65;;;;;;;18.31;80.06;100644.28;5012866;28;20061;-41
2023/08/06 04:45:05;;;;;;;5.60;2.58;;;;;;;18.32;80.04;100643.38;5012349;28;20403;-39
2023/08/06 04:47:30;;;;;;;7.88;2.90;;;;;;;18.33;80.06;100649.53;5013325;28;20449;-44
2023/08/06 04:49:56;;;;;;;7.47;3.40;;;;;;;18.20;80.57;100646.28;5013223;28;20030;-42
2023/08/06 04:52:21;;;;;;;7.60;3.38;;;;;;;18.41;80.19;100651.09;5012492;28;20036;-41
2023/08/06 04:54:46;;;;;;;6.30;3.28;;;;;;;18.31;80.76;100648.69;5013352;28;20034;-48
2023/08/06 04:57:12;;;;;;;6.00;3.20;;;;;;;18.23;81.04;100657.66;5013135;28;20125;-44
2023/08/06 04:59:37;;;;;;;5.68;3.40;;;;;;;18.41;81.27;100655.50;5013025;28;20065;-45
2023/08/06 05:02:02;;;;;;;5.72;3.22;;;;;;;18.60;80.49;100660.34;5012191;28;20037;-42
2023/08/06 05:04:28;;;;;;;6.72;3.10;;;;;;;18.22;81.31;100662.97;5013364;28;20037;-44
2023/08/06 05:06:53;;;;;;;6.40;3.03;;;;;;;18.05;82.45;100670.34;5012977;28;20411;-45
2023/08/06 05:09:19;;;;;;;11.05;3.67;;;;;;;18.02;82.17;100673.91;5012112;28;20062;-42
2023/08/06 05:11:46;;;;;;;7.55;3.10;;;;;;;18.41;81.10;100672.22;5012178;28;20038;-44
2023/08/06 05:14:11;;;;;;;8.13;3.42;;;;;;;18.48;81.01;100668.53;5011493;28;20113;-43
2023/08/06 05:16:36;;;;;;;5.43;3.20;;;;;;;18.70;80.44;100676.00;5012488;28;20215;-46
2023/08/06 05:19:02;;;;;;;7.38;3.38;;;;;;;18.42;80.62;100684.50;5012131;28;20070;-46
2023/08/06 05:21:27;;;;;;;6.68;4.03;;;;;;;18.10;81.95;100686.97;5012623;28;20034;-41
2023/08/06 05:23:53;;;;;;;8.30;3.97;;;;;;;18.19;82.06;100694.66;5012235;28;20523;-42
2023/08/06 05:26:19;;;;;;;6.43;3.38;;;;;;;18.34;81.69;100697.00;5012305;28;20033;-47
2023/08/06 05:28:45;;;;;;;10.10;3.42;;;;;;;18.28;81.27;100697.13;5012498;28;20034;-43
2023/08/06 05:31:10;;;;;;;6.25;3.30;;;;;;;18.39;81.62;100700.41;5010882;28;20038;-44
2023/08/06 05:33:36;;;;;;;7.53;3.20;;;;;;;18.15;82.20;100707.06;5011801;28;20385;-40
2023/08/06 05:36:01;;;;;;;7.07;2.97;;;;;;;17.73;84.09;100707.91;5012134;28;20045;-40
2023/08/06 05:38:26;;;;;;;5.35;2.38;;;;;;;17.71;84.44;100710.56;5013845;28;20098;-50
2023/08/06 05:40:52;;;;;;;5.15;2.53;;;;;;;17.94;83.40;100711.88;5013995;28;20225;-44
2023/08/06 05:43:17;;;;;;;8.23;2.50;;;;;;;18.03;82.83;100719.63;5012512;28;20037;-43
2023/08/06 05:45:49;;;;;;;7.40;2.60;;;;;;;18.23;82.40;100718.34;5013784;28;20117;-47
2023/08/06 05:48:14;;;;;;;5.25;2.30;;;;;;;18.23;82.16;100720.13;5014068;28;20129;-44
2023/08/06 05:50:39;;;;;;;5.05;2.25;;;;;;;18.35;81.79;100721.63;5013940;28;20092;-47
2023/08/06 05:53:05;;;;;;;4.18;1.98;;;;;;;18.46;81.81;100722.28;5014930;28;20034;-44
2023/08/06 05:55:32;;;;;;;7.22;2.15;;;;;;;18.29;81.99;100720.00;5015442;28;20558;-44
2023/08/06 05:57:57;;;;;;;5.65;1.65;;;;;;;18.29;82.24;100720.00;5012203;28;20768;-42
2023/08/06 06:00:22;;;;;;;4.47;1.80;;;;;;;18.10;83.39;100726.53;5011599;28;20038;-46
2023/08/06 06:02:48;;;;;;;4.88;1.60;;;;;;;18.57;81.93;100725.56;5011723;28;20034;-46
2023/08/06 06:05:13;;;;;;;3.90;1.52;;;;;;;18.59;81.47;100727.28;5011430;28;20034;-44
2023/08/06 06:07:38;;;;;;;4.28;1.40;;;;;;;18.43;82.62;100724.97;5011813;28;20790;-46
2023/08/06 06:10:04;;;;;;;3.58;1.55;;;;;;;18.20;82.49;100741.28;5011488;28;20045;-47
2023/08/06 06:12:30;;;;;;;6.80;1.40;;;;;;;18.37;82.27;100746.19;5011513;28;20057;-46
2023/08/06 06:14:55;;;;;;;6.43;1.60;;;;;;;18.56;81.91;100748.47;5011901;28;20042;-44
2023/08/06 06:17:21;;;;;;;4.32;1.30;;;;;;;19.01;80.59;100751.00;5011859;28;20038;-48
2023/08/06 06:19:47;;;;;;;5.68;1.30;;;;;;;18.95;80.30;100743.22;5012268;28;20037;-43
2023/08/06 06:22:12;;;;;;;2.67;1.20;;;;;;;18.92;80.26;100748.56;5011608;28;20042;-42
2023/08/06 06:24:37;;;;;;;2.67;1.08;;;;;;;18.81;80.35;100756.72;5012673;28;20066;-43
2023/08/06 06:27:03;;;;;;;3.42;0.93;;;;;;;18.62;80.66;100755.38;5012949;28;20476;-46
2023/08/06 06:29:29;;;;;;;2.92;1.10;;;;;;;18.70;80.74;100752.59;5012355;28;20045;-42
2023/08/06 06:31:54;;;;;;;3.30;0.98;;;;;;;18.52;81.19;100757.31;5012304;28;20065;-43
2023/08/06 06:34:20;;;;;;;6.30;0.98;;;;;;;18.60;81.39;100757.22;5012780;28;20128;-44
2023/08/06 06:36:45;;;;;;;5.60;1.13;;;;;;;18.57;80.85;100758.13;5013470;28;20026;-47
2023/08/06 06:39:11;;;;;;;4.45;1.10;;;;;;;18.61;80.44;100762.44;5013720;28;20125;-43
2023/08/06 06:41:36;;;;;;;3.35;1.00;;;;;;;19.22;78.95;100754.88;5013270;28;20045;-45
2023/08/06 06:44:01;;;;;;;3.25;1.08;;;;;;;19.23;78.43;100764.56;5012321;28;20080;-46
2023/08/06 06:46:27;;;;;;;3.88;1.10;;;;;;;18.74;79.21;100770.09;5013866;28;20141;-43
2023/08/06 06:48:52;;;;;;;4.55;1.10;;;;;;;18.46;78.97;100768.00;5014129;28;20034;-46
2023/08/06 06:51:17;;;;;;;2.85;0.98;;;;;;;18.41;79.57;100772.53;5010578;28;20029;-44
2023/08/06 06:53:43;;;;;;;2.60;1.02;;;;;;;18.59;79.04;100768.66;5010598;28;20038;-42
2023/08/06 06:56:08;;;;;;;2.42;1.10;;;;;;;18.73;78.88;100776.28;5010471;28;20037;-49
2023/08/06 06:58:34;;;;;;;2.42;1.02;;;;;;;18.53;78.50;100780.19;5011108;28;20065;-44
2023/08/06 07:00:59;;;;;;;3.78;1.00;;;;;;;18.45;78.92;100781.25;5013170;28;20037;-46
2023/08/06 07:03:25;;;;;;;2.97;1.00;;;;;;;18.56;78.63;100781.91;5016908;28;20049;-46
2023/08/06 07:05:50;;;;;;;2.75;1.08;;;;;;;18.78;77.92;100783.22;5013437;28;20571;-43
2023/08/06 07:08:16;;;;;;;2.88;1.10;;;;;;;18.86;77.96;100785.66;5010005;28;20591;-46
2023/08/06 07:10:41;;;;;;;4.07;1.20;;;;;;;18.51;77.59;100796.94;5010364;28;20141;-48
2023/08/06 07:13:07;;;;;;;2.88;1.25;;;;;;;18.58;77.70;100793.31;5010147;28;20034;-44
2023/08/06 07:15:32;;;;;;;3.15;1.10;;;;;;;18.66;78.01;100795.81;5011035;28;20034;-43
2023/08/06 07:17:58;;;;;;;3.83;1.20;;;;;;;18.93;77.16;100797.84;5010503;28;20048;-43
2023/08/06 07:20:23;;;;;;;3.10;1.38;;;;;;;19.30;76.45;100796.09;5010265;28;20064;-43
2023/08/06 07:22:49;;;;;;;2.53;1.20;;;;;;;19.02;76.14;100803.81;5010179;28;20049;-42
2023/08/06 07:25:16;;;;;;;4.35;1.38;;;;;;;18.78;77.74;100807.00;5010330;28;20042;-42
2023/08/06 07:27:41;;;;;;;3.72;1.40;;;;;;;18.90;76.15;100804.09;5011123;28;20120;-41
2023/08/06 07:30:07;;;;;;;6.40;1.80;;;;;;;19.45;75.65;100808.09;5010402;28;20073;-43
2023/08/06 07:32:32;;;;;;;4.63;1.50;;;;;;;19.70;75.53;100808.41;5010328;28;20038;-44
2023/08/06 07:34:59;;;;;;;2.70;1.48;;;;;;;19.36;75.08;100810.94;5010304;28;20116;-46
2023/08/06 07:37:25;;;;;;;3.45;1.30;;;;;;;19.63;74.98;100810.34;5008986;28;20461;-42
2023/08/06 07:39:50;;;;;;;5.03;1.48;;;;;;;19.37;74.91;100816.22;5010581;28;20128;-46
2023/08/06 07:42:15;;;;;;;4.00;1.40;;;;;;;19.52;74.44;100816.78;5009364;28;20540;-43
2023/08/06 07:44:41;;;;;;;3.03;1.25;;;;;;;19.29;74.51;100820.78;5010145;28;20042;-43
2023/08/06 07:47:06;;;;;;;2.83;1.63;;;;;;;19.21;74.61;100806.03;5009247;28;20042;-44
2023/08/06 07:49:31;;;;;;;4.07;1.45;;;;;;;19.15;75.16;100816.75;5010235;28;20030;-46
2023/08/06 07:51:57;;;;;;;2.95;1.40;;;;;;;19.75;74.34;100817.97;5008366;28;20061;-49
2023/08/06 07:54:24;;;;;;;3.05;1.50;;;;;;;19.73;74.37;100809.19;5012107;28;20064;-43
2023/08/06 07:56:49;;;;;;;3.38;1.50;;;;;;;19.88;72.96;100815.88;5017505;28;20034;-45
2023/08/06 07:59:15;;;;;;;4.10;1.60;;;;;;;19.77;73.50;100808.19;5016422;28;20424;-43
2023/08/06 08:01:40;;;;;;;2.67;1.52;;;;;;;19.87;72.54;100810.63;5016197;28;20436;-42
2023/08/06 08:04:05;;;;;;;3.38;1.60;;;;;;;20.12;72.14;100817.88;5015120;28;20069;-49
2023/08/06 08:06:31;;;;;;;5.30;1.70;;;;;;;19.63;72.02;100820.03;5016361;28;20034;-42
2023/08/06 08:08:56;;;;;;;4.50;1.67;;;;;;;19.85;71.51;100814.16;5015898;28;20034;-44
2023/08/06 08:11:21;;;;;;;4.00;1.58;;;;;;;19.97;72.41;100820.03;5015398;28;20034;-47
2023/08/06 08:13:47;;;;;;;4.85;1.70;;;;;;;19.73;71.71;100819.78;5015515;28;20057;-43
2023/08/06 08:16:12;;;;;;;4.13;1.50;;;;;;;19.40;73.15;100815.25;5015641;28;20034;-44
2023/08/06 08:18:37;;;;;;;3.03;1.63;;;;;;;19.71;73.40;100820.69;5015344;28;20038;-42
2023/08/06 08:21:03;;;;;;;3.58;1.60;;;;;;;19.60;72.97;100828.03;5015910;28;20045;-43
2023/08/06 08:23:28;;;;;;;3.47;1.50;;;;;;;19.16;72.48;100823.75;5015726;28;20065;-47
2023/08/06 08:25:54;;;;;;;3.65;1.55;;;;;;;19.66;71.59;100825.25;5015994;28;20115;-44
2023/08/06 08:28:19;;;;;;;3.25;1.58;;;;;;;19.73;71.38;100826.84;5014035;28;20057;-43
2023/08/06 08:30:45;;;;;;;4.50;1.52;;;;;;;19.45;71.40;100826.63;5015972;28;20412;-44
2023/08/06 08:33:10;;;;;;;3.78;1.60;;;;;;;20.10;70.82;100827.63;5015012;28;20684;-42
2023/08/06 08:35:37;;;;;;;4.35;1.80;;;;;;;19.70;70.46;100829.56;5016146;28;20596;-43
2023/08/06 08:38:02;;;;;;;3.60;1.65;;;;;;;19.90;70.12;100831.69;5015583;28;20034;-45
2023/08/06 08:40:32;;;;;;;3.83;1.42;;;;;;;20.37;69.08;100833.13;5016074;28;20455;-43
2023/08/06 08:42:59;;;;;;;5.00;1.60;;;;;;;20.93;69.53;100834.13;5014293;28;20060;-45
2023/08/06 08:45:28;;;;;;;3.13;1.52;;;;;;;20.72;67.16;100848.91;5015417;28;20041;-42
2023/08/06 08:47:54;;;;;;;5.43;1.50;;;;;;;20.74;66.81;100843.56;5016265;28;20516;-43
2023/08/06 08:50:21;;;;;;;3.00;1.40;;;;;;;20.94;66.82;100835.88;5015863;28;20727;-43
2023/08/06 08:52:48;;;;;;;3.20;1.60;;;;;;;20.27;67.70;100848.34;5016145;28;20112;-42
2023/08/06 08:55:16;;;;;;;3.72;1.50;;;;;;;20.42;68.12;100839.16;5017513;28;20033;-45
2023/08/06 08:57:41;;;;;;;2.08;1.40;;;;;;;20.12;68.01;100843.47;5018249;28;20056;-43
2023/08/06 09:00:07;;;;;;;2.08;1.30;;;;;;;20.34;68.39;100851.75;5018535;28;20041;-42
2023/08/06 09:02:33;;;;;;;2.50;1.40;;;;;;;19.80;68.28;100852.22;5017963;28;20129;-42
2023/08/06 09:05:04;;;;;;;4.65;1.83;;;;;;;20.15;69.39;100851.31;5017344;28;20030;-43
2023/08/06 09:07:34;;;;;;;3.97;1.67;;;;;;;20.05;68.25;100861.28;5012884;28;20052;-44
2023/08/06 09:10:05;;;;;;;3.28;1.60;;;;;;;20.01;68.47;100858.75;5012678;28;20092;-45
2023/08/06 09:12:31;;;;;;;3.92;1.77;;;;;;;19.91;67.66;100849.31;5011823;28;20034;-47
2023/08/06 09:14:57;;;;;;;3.97;1.88;;;;;;;20.10;67.68;100858.53;5012621;28;20052;-43
2023/08/06 09:17:22;;;;;;;3.72;1.83;;;;;;;20.03;68.13;100854.28;5012235;28;20048;-42
2023/08/06 09:19:48;;;;;;;4.07;1.52;;;;;;;20.83;65.39;100861.81;5012626;28;20034;-43
2023/08/06 09:22:14;;;;;;;2.28;1.45;;;;;;;20.13;65.57;100867.22;5011631;28;20095;-47
2023/08/06 09:24:41;;;;;;;2.65;1.30;;;;;;;20.29;65.31;100866.84;5012117;28;20092;-45
2023/08/06 09:27:14;;;;;;;3.35;1.40;;;;;;;20.67;65.00;100871.13;5011435;28;20061;-42
2023/08/06 09:29:44;;;;;;;3.30;1.33;;;;;;;21.08;64.88;100860.19;5012585;28;20045;-45
2023/08/06 09:32:11;;;;;;;2.33;1.30;;;;;;;21.20;64.79;100874.91;5011423;28;20041;-45
2023/08/06 09:34:39;;;;;;;2.95;1.30;;;;;;;20.63;64.46;100873.84;5012052;28;20528;-44
2023/08/06 09:37:04;;;;;;;2.10;1.40;;;;;;;21.57;64.71;100877.28;5011999;28;20096;-42
2023/08/06 09:39:31;;;;;;;2.83;1.30;;;;;;;21.28;63.75;100880.84;5011800;28;20488;-46
2023/08/06 09:41:58;;;;;;;2.58;1.40;;;;;;;21.62;62.84;100873.56;5011549;28;20041;-41
2023/08/06 09:44:25;;;;;;;3.38;1.42;;;;;;;21.68;62.31;100877.81;5011600;28;20112;-42
2023/08/06 09:46:52;;;;;;;2.40;1.48;;;;;;;21.27;63.94;100892.38;5011812;28;20057;-42
2023/08/06 09:49:32;;;;;;;2.03;1.30;;;;;;;20.70;63.66;100906.34;5013140;28;20473;-42
2023/08/06 09:51:59;;;;;;;3.75;1.60;;;;;;;21.18;63.83;100895.28;5012376;28;20654;-42
2023/08/06 09:54:26;;;;;;;2.85;1.40;;;;;;;20.99;63.38;100905.50;5011159;28;20030;-46
2023/08/06 09:56:52;;;;;;;2.53;1.35;;;;;;;20.74;63.69;100899.22;5012029;28;20124;-44
2023/08/06 09:59:19;;;;;;;3.00;1.48;;;;;;;21.64;62.32;100900.94;5011175;28;20065;-42
2023/08/06 10:01:45;;;;;;;3.97;1.50;;;;;;;21.72;60.19;100908.63;5011440;28;20046;-43
2023/08/06 10:04:12;;;;;;;2.47;1.33;;;;;;;21.82;60.03;100904.78;5010605;28;20559;-42
2023/08/06 10:06:38;;;;;;;4.97;1.48;;;;;;;21.35;62.12;100912.41;5011534;28;20034;-47
2023/08/06 10:09:04;;;;;;;3.65;1.35;;;;;;;20.83;63.44;100917.47;5011229;28;20041;-42
2023/08/06 10:11:30;;;;;;;4.07;1.42;;;;;;;20.78;62.70;100922.03;5011114;28;20042;-43
2023/08/06 10:14:03;;;;;;;4.32;1.52;;;;;;;21.37;60.73;100915.91;5010999;28;20048;-46
2023/08/06 10:16:29;;;;;;;8.43;1.63;;;;;;;21.92;62.34;100918.59;5010981;28;20042;-45
2023/08/06 10:18:55;;;;;;;4.25;1.70;;;;;;;22.00;61.47;100933.41;5010773;28;20307;-43
2023/08/06 10:21:23;;;;;;;5.13;1.48;;;;;;;21.20;61.19;100918.19;5010496;28;20555;-44
2023/08/06 10:23:54;;;;;;;3.30;1.40;;;;;;;21.56;61.43;100926.81;5010485;28;20488;-43
2023/08/06 10:26:19;;;;;;;3.13;1.30;;;;;;;21.91;60.81;100922.16;5010779;28;20042;-42
2023/08/06 10:28:45;;;;;;;4.82;1.50;;;;;;;21.28;61.31;100924.16;5011160;28;20128;-44
2023/08/06 10:31:10;;;;;;;3.08;1.40;;;;;;;21.54;59.23;100928.63;5010284;28;20038;-47
2023/08/06 10:33:44;;;;;;;3.83;1.52;;;;;;;21.40;58.48;100926.44;5010542;28;20678;-42
2023/08/06 10:36:09;;;;;;;;;;;;;;;22.24;57.46;100926.41;5011406;28;20527;-42
2023/08/06 10:38:37;;;;;;;6.13;1.70;;;;;;;21.46;60.47;100933.34;5013455;28;19914;-44
2023/08/06 10:41:03;;;;;;;2.65;1.40;;;;;;;21.15;62.71;100930.72;5012720;28;20038;-44
2023/08/06 10:43:34;;;;;;;3.45;1.67;;;;;;;21.38;60.63;100928.25;5010587;28;20127;-46
2023/08/06 10:46:02;;;;;;;3.35;1.50;;;;;;;20.92;61.54;100928.66;5011465;28;20029;-46
2023/08/06 10:48:34;;;;;;;4.00;1.50;;;;;;;21.33;61.65;100927.53;5012337;28;20047;-46
2023/08/06 10:51:01;;;;;;;5.70;1.77;;;;;;;20.94;61.83;100941.88;5012189;28;20042;-43
2023/08/06 10:53:26;;;;;;;3.53;1.80;;;;;;;21.28;62.30;100939.19;5009989;28;20038;-43
2023/08/06 10:55:52;;;;;;;3.80;1.83;;;;;;;21.17;61.96;100936.81;5010784;28;20136;-44
2023/08/06 10:58:17;;;;;;;3.25;1.90;;;;;;;21.41;60.78;100940.53;5010197;28;20037;-42
2023/08/06 11:00:42;;;;;;;3.15;1.70;;;;;;;21.24;59.82;100945.47;5010302;28;20042;-43
2023/08/06 11:03:09;;;;;;;3.15;1.80;;;;;;;20.75;59.27;100945.97;5009429;28;20140;-43
2023/08/06 11:05:35;;;;;;;4.53;1.80;;;;;;;21.35;59.17;100938.06;5010642;28;20074;-46
2023/08/06 11:08:00;;;;;;;2.83;1.63;;;;;;;21.10;58.21;100947.66;5010234;28;20463;-46
2023/08/06 11:10:26;;;;;;;2.60;1.48;;;;;;;21.36;57.42;100947.75;5010439;28;20117;-46
2023/08/06 11:12:51;;;;;;;4.28;1.50;;;;;;;21.41;59.50;100943.19;5010314;28;20034;-44
2023/08/06 11:15:16;;;;;;;2.90;1.33;;;;;;;21.70;59.49;100942.31;5010103;28;20062;-44
2023/08/06 11:17:42;;;;;;;4.15;1.45;;;;;;;22.24;58.73;100948.53;5010395;28;20042;-45
2023/08/06 11:20:08;;;;;;;4.10;1.30;;;;;;;21.58;56.92;100950.66;5009924;28;20120;-43